sensor_id;sensor_type;location;lat;lon;timestamp;P1;durP1;ratioP1;P2;durP2;ratioP2
57297;SDS011;43147;50.972;18.210;2023-04-24T00:00:54;16.70;;;10.30;;
57297;SDS011;43147;50.972;18.210;2023-04-24T00:03:22;11.80;;;9.90;;
57297;SDS011;43147;50.972;18.210;2023-04-24T00:05:49;13.00;;;10.50;;
57297;SDS011;43147;50.972;18.210;2023-04-24T00:08:15;12.50;;;10.90;;
57297;SDS011;43147;50.972;18.210;2023-04-24T00:10:41;12.60;;;10.30;;
57297;SDS011;43147;50.972;18.210;2023-04-24T00:13:06;16.20;;;8.30;;
57297;SDS011;43147;50.972;18.210;2023-04-24T00:15:33;17.20;;;10.10;;
57297;SDS011;43147;50.972;18.210;2023-04-24T00:17:59;10.10;;;7.10;;
57297;SDS011;43147;50.972;18.210;2023-04-24T00:20:26;10.20;;;9.10;;
57297;SDS011;43147;50.972;18.210;2023-04-24T00:22:54;10.40;;;9.30;;
57297;SDS011;43147;50.972;18.210;2023-04-24T00:25:20;12.40;;;7.20;;
57297;SDS011;43147;50.972;18.210;2023-04-24T00:27:46;12.20;;;9.30;;
57297;SDS011;43147;50.972;18.210;2023-04-24T00:30:12;10.60;;;8.80;;
57297;SDS011;43147;50.972;18.210;2023-04-24T00:32:37;10.90;;;8.70;;
57297;SDS011;43147;50.972;18.210;2023-04-24T00:35:03;8.20;;;6.40;;
57297;SDS011;43147;50.972;18.210;2023-04-24T00:37:31;9.20;;;8.20;;
57297;SDS011;43147;50.972;18.210;2023-04-24T00:39:57;9.50;;;8.60;;
57297;SDS011;43147;50.972;18.210;2023-04-24T00:42:23;13.00;;;6.40;;
57297;SDS011;43147;50.972;18.210;2023-04-24T00:44:49;8.10;;;6.70;;
57297;SDS011;43147;50.972;18.210;2023-04-24T00:47:14;11.50;;;8.50;;
57297;SDS011;43147;50.972;18.210;2023-04-24T00:49:40;10.10;;;8.10;;
57297;SDS011;43147;50.972;18.210;2023-04-24T00:52:06;12.00;;;8.40;;
57297;SDS011;43147;50.972;18.210;2023-04-24T00:54:34;9.70;;;8.70;;
57297;SDS011;43147;50.972;18.210;2023-04-24T00:57:00;8.50;;;7.70;;
57297;SDS011;43147;50.972;18.210;2023-04-24T00:59:28;8.90;;;8.00;;
57297;SDS011;43147;50.972;18.210;2023-04-24T01:01:53;10.80;;;7.70;;
57297;SDS011;43147;50.972;18.210;2023-04-24T01:04:20;8.20;;;5.60;;
57297;SDS011;43147;50.972;18.210;2023-04-24T01:06:45;8.80;;;7.90;;
57297;SDS011;43147;50.972;18.210;2023-04-24T01:09:12;7.60;;;6.60;;
57297;SDS011;43147;50.972;18.210;2023-04-24T01:11:38;9.20;;;7.80;;
57297;SDS011;43147;50.972;18.210;2023-04-24T01:14:06;15.90;;;6.80;;
57297;SDS011;43147;50.972;18.210;2023-04-24T01:16:31;11.10;;;8.20;;
57297;SDS011;43147;50.972;18.210;2023-04-24T01:18:57;9.60;;;8.30;;
57297;SDS011;43147;50.972;18.210;2023-04-24T01:21:23;10.30;;;8.10;;
57297;SDS011;43147;50.972;18.210;2023-04-24T01:23:49;10.80;;;7.20;;
57297;SDS011;43147;50.972;18.210;2023-04-24T01:26:17;9.50;;;7.90;;
57297;SDS011;43147;50.972;18.210;2023-04-24T01:28:43;10.60;;;8.50;;
57297;SDS011;43147;50.972;18.210;2023-04-24T01:31:09;11.20;;;8.50;;
57297;SDS011;43147;50.972;18.210;2023-04-24T01:33:34;12.50;;;8.70;;
57297;SDS011;43147;50.972;18.210;2023-04-24T01:36:00;10.50;;;9.30;;
57297;SDS011;43147;50.972;18.210;2023-04-24T01:38:26;14.10;;;9.60;;
57297;SDS011;43147;50.972;18.210;2023-04-24T01:40:52;10.70;;;8.80;;
57297;SDS011;43147;50.972;18.210;2023-04-24T01:43:18;10.20;;;7.90;;
57297;SDS011;43147;50.972;18.210;2023-04-24T01:45:44;9.70;;;7.10;;
57297;SDS011;43147;50.972;18.210;2023-04-24T01:48:11;10.60;;;8.20;;
57297;SDS011;43147;50.972;18.210;2023-04-24T01:50:37;9.90;;;8.90;;
57297;SDS011;43147;50.972;18.210;2023-04-24T01:53:03;11.40;;;8.70;;
57297;SDS011;43147;50.972;18.210;2023-04-24T01:55:29;11.70;;;8.60;;
57297;SDS011;43147;50.972;18.210;2023-04-24T01:57:55;10.80;;;8.10;;
57297;SDS011;43147;50.972;18.210;2023-04-24T02:00:21;8.00;;;6.30;;
57297;SDS011;43147;50.972;18.210;2023-04-24T02:02:47;10.40;;;8.40;;
57297;SDS011;43147;50.972;18.210;2023-04-24T02:05:13;10.30;;;8.00;;
57297;SDS011;43147;50.972;18.210;2023-04-24T02:07:38;13.50;;;8.10;;
57297;SDS011;43147;50.972;18.210;2023-04-24T02:10:05;10.30;;;9.20;;
57297;SDS011;43147;50.972;18.210;2023-04-24T02:12:31;11.10;;;6.70;;
57297;SDS011;43147;50.972;18.210;2023-04-24T02:14:57;11.30;;;6.90;;
57297;SDS011;43147;50.972;18.210;2023-04-24T02:17:22;11.00;;;8.10;;
57297;SDS011;43147;50.972;18.210;2023-04-24T02:19:48;10.70;;;7.10;;
57297;SDS011;43147;50.972;18.210;2023-04-24T02:22:14;9.50;;;8.50;;
57297;SDS011;43147;50.972;18.210;2023-04-24T02:24:40;14.40;;;8.90;;
57297;SDS011;43147;50.972;18.210;2023-04-24T02:27:05;13.10;;;7.50;;
57297;SDS011;43147;50.972;18.210;2023-04-24T02:29:31;18.10;;;10.40;;
57297;SDS011;43147;50.972;18.210;2023-04-24T02:31:57;18.90;;;11.70;;
57297;SDS011;43147;50.972;18.210;2023-04-24T02:34:22;15.60;;;9.40;;
57297;SDS011;43147;50.972;18.210;2023-04-24T02:36:48;13.50;;;10.00;;
57297;SDS011;43147;50.972;18.210;2023-04-24T02:39:14;13.80;;;10.40;;
57297;SDS011;43147;50.972;18.210;2023-04-24T02:41:42;10.60;;;9.50;;
57297;SDS011;43147;50.972;18.210;2023-04-24T02:44:08;12.50;;;10.30;;
57297;SDS011;43147;50.972;18.210;2023-04-24T02:46:34;15.70;;;10.40;;
57297;SDS011;43147;50.972;18.210;2023-04-24T02:49:00;15.40;;;10.10;;
57297;SDS011;43147;50.972;18.210;2023-04-24T02:51:25;12.90;;;10.40;;
57297;SDS011;43147;50.972;18.210;2023-04-24T02:53:52;12.40;;;10.20;;
57297;SDS011;43147;50.972;18.210;2023-04-24T02:56:18;12.20;;;10.80;;
57297;SDS011;43147;50.972;18.210;2023-04-24T02:58:43;13.20;;;10.30;;
57297;SDS011;43147;50.972;18.210;2023-04-24T03:01:09;13.60;;;10.30;;
57297;SDS011;43147;50.972;18.210;2023-04-24T03:03:37;10.70;;;9.60;;
57297;SDS011;43147;50.972;18.210;2023-04-24T03:06:04;12.70;;;10.30;;
57297;SDS011;43147;50.972;18.210;2023-04-24T03:08:33;13.00;;;10.90;;
57297;SDS011;43147;50.972;18.210;2023-04-24T03:10:59;13.60;;;10.50;;
57297;SDS011;43147;50.972;18.210;2023-04-24T03:13:25;11.50;;;10.40;;
57297;SDS011;43147;50.972;18.210;2023-04-24T03:15:51;11.40;;;10.20;;
57297;SDS011;43147;50.972;18.210;2023-04-24T03:18:17;11.20;;;10.10;;
57297;SDS011;43147;50.972;18.210;2023-04-24T03:20:45;13.30;;;10.50;;
57297;SDS011;43147;50.972;18.210;2023-04-24T03:23:11;10.30;;;9.30;;
57297;SDS011;43147;50.972;18.210;2023-04-24T03:25:37;11.20;;;7.70;;
57297;SDS011;43147;50.972;18.210;2023-04-24T03:28:02;14.10;;;10.00;;
57297;SDS011;43147;50.972;18.210;2023-04-24T03:30:28;11.10;;;9.90;;
57297;SDS011;43147;50.972;18.210;2023-04-24T03:32:54;10.80;;;9.10;;
57297;SDS011;43147;50.972;18.210;2023-04-24T03:35:19;13.70;;;9.70;;
57297;SDS011;43147;50.972;18.210;2023-04-24T03:37:47;13.00;;;9.30;;
57297;SDS011;43147;50.972;18.210;2023-04-24T03:40:12;12.40;;;9.80;;
57297;SDS011;43147;50.972;18.210;2023-04-24T03:42:38;9.70;;;8.80;;
57297;SDS011;43147;50.972;18.210;2023-04-24T03:45:04;12.80;;;7.20;;
57297;SDS011;43147;50.972;18.210;2023-04-24T03:47:30;11.20;;;9.00;;
57297;SDS011;43147;50.972;18.210;2023-04-24T03:49:58;10.90;;;9.30;;
57297;SDS011;43147;50.972;18.210;2023-04-24T03:52:24;11.10;;;6.50;;
57297;SDS011;43147;50.972;18.210;2023-04-24T03:54:49;9.80;;;8.20;;
57297;SDS011;43147;50.972;18.210;2023-04-24T03:57:15;13.30;;;8.80;;
57297;SDS011;43147;50.972;18.210;2023-04-24T03:59:40;12.80;;;9.10;;
57297;SDS011;43147;50.972;18.210;2023-04-24T04:02:06;10.10;;;7.30;;
57297;SDS011;43147;50.972;18.210;2023-04-24T04:04:32;14.00;;;11.70;;
57297;SDS011;43147;50.972;18.210;2023-04-24T04:06:57;12.10;;;10.50;;
57297;SDS011;43147;50.972;18.210;2023-04-24T04:09:26;18.90;;;13.50;;
57297;SDS011;43147;50.972;18.210;2023-04-24T04:11:52;20.20;;;15.50;;
57297;SDS011;43147;50.972;18.210;2023-04-24T04:14:19;17.40;;;11.60;;
57297;SDS011;43147;50.972;18.210;2023-04-24T04:16:44;14.50;;;10.40;;
57297;SDS011;43147;50.972;18.210;2023-04-24T04:19:10;17.10;;;10.30;;
57297;SDS011;43147;50.972;18.210;2023-04-24T04:21:36;19.20;;;14.60;;
57297;SDS011;43147;50.972;18.210;2023-04-24T04:24:01;13.20;;;11.80;;
57297;SDS011;43147;50.972;18.210;2023-04-24T04:26:27;13.80;;;9.30;;
57297;SDS011;43147;50.972;18.210;2023-04-24T04:28:53;14.70;;;11.10;;
57297;SDS011;43147;50.972;18.210;2023-04-24T04:31:19;16.30;;;10.60;;
57297;SDS011;43147;50.972;18.210;2023-04-24T04:33:46;17.10;;;9.40;;
57297;SDS011;43147;50.972;18.210;2023-04-24T04:36:11;15.00;;;12.70;;
57297;SDS011;43147;50.972;18.210;2023-04-24T04:38:37;20.50;;;14.50;;
57297;SDS011;43147;50.972;18.210;2023-04-24T04:41:03;19.40;;;14.80;;
57297;SDS011;43147;50.972;18.210;2023-04-24T04:43:29;25.00;;;10.20;;
57297;SDS011;43147;50.972;18.210;2023-04-24T04:45:57;18.60;;;12.90;;
57297;SDS011;43147;50.972;18.210;2023-04-24T04:48:23;16.20;;;12.50;;
57297;SDS011;43147;50.972;18.210;2023-04-24T04:50:48;13.50;;;11.60;;
57297;SDS011;43147;50.972;18.210;2023-04-24T04:53:14;15.60;;;12.60;;
57297;SDS011;43147;50.972;18.210;2023-04-24T04:55:39;13.70;;;11.70;;
57297;SDS011;43147;50.972;18.210;2023-04-24T04:58:05;13.70;;;11.90;;
57297;SDS011;43147;50.972;18.210;2023-04-24T05:00:31;15.20;;;8.40;;
57297;SDS011;43147;50.972;18.210;2023-04-24T05:03:01;14.00;;;11.40;;
57297;SDS011;43147;50.972;18.210;2023-04-24T05:05:27;14.50;;;11.00;;
57297;SDS011;43147;50.972;18.210;2023-04-24T05:07:52;11.10;;;9.90;;
57297;SDS011;43147;50.972;18.210;2023-04-24T05:10:18;13.20;;;10.00;;
57297;SDS011;43147;50.972;18.210;2023-04-24T05:12:44;12.70;;;10.70;;
57297;SDS011;43147;50.972;18.210;2023-04-24T05:15:09;14.30;;;8.70;;
57297;SDS011;43147;50.972;18.210;2023-04-24T05:17:35;16.10;;;11.30;;
57297;SDS011;43147;50.972;18.210;2023-04-24T05:20:02;13.10;;;10.60;;
57297;SDS011;43147;50.972;18.210;2023-04-24T05:22:30;13.90;;;11.40;;
57297;SDS011;43147;50.972;18.210;2023-04-24T05:24:56;17.40;;;11.90;;
57297;SDS011;43147;50.972;18.210;2023-04-24T05:27:22;18.90;;;11.30;;
57297;SDS011;43147;50.972;18.210;2023-04-24T05:29:48;14.00;;;11.00;;
57297;SDS011;43147;50.972;18.210;2023-04-24T05:32:13;15.10;;;10.80;;
57297;SDS011;43147;50.972;18.210;2023-04-24T05:34:39;16.10;;;9.10;;
57297;SDS011;43147;50.972;18.210;2023-04-24T05:37:04;14.20;;;11.20;;
57297;SDS011;43147;50.972;18.210;2023-04-24T05:39:33;13.60;;;11.00;;
57297;SDS011;43147;50.972;18.210;2023-04-24T05:42:00;13.90;;;7.80;;
57297;SDS011;43147;50.972;18.210;2023-04-24T05:44:26;17.90;;;11.00;;
57297;SDS011;43147;50.972;18.210;2023-04-24T05:46:52;11.60;;;10.20;;
57297;SDS011;43147;50.972;18.210;2023-04-24T05:49:17;14.80;;;10.20;;
57297;SDS011;43147;50.972;18.210;2023-04-24T05:51:43;14.70;;;11.60;;
57297;SDS011;43147;50.972;18.210;2023-04-24T05:54:08;13.40;;;11.50;;
57297;SDS011;43147;50.972;18.210;2023-04-24T05:56:36;12.90;;;10.80;;
57297;SDS011;43147;50.972;18.210;2023-04-24T05:59:01;12.30;;;9.90;;
57297;SDS011;43147;50.972;18.210;2023-04-24T06:01:27;13.60;;;9.80;;
57297;SDS011;43147;50.972;18.210;2023-04-24T06:03:52;12.20;;;9.80;;
57297;SDS011;43147;50.972;18.210;2023-04-24T06:06:18;19.80;;;10.50;;
57297;SDS011;43147;50.972;18.210;2023-04-24T06:08:44;12.50;;;9.20;;
57297;SDS011;43147;50.972;18.210;2023-04-24T06:11:10;21.30;;;10.10;;
57297;SDS011;43147;50.972;18.210;2023-04-24T06:13:36;14.90;;;9.40;;
57297;SDS011;43147;50.972;18.210;2023-04-24T06:16:02;13.30;;;8.70;;
57297;SDS011;43147;50.972;18.210;2023-04-24T06:18:30;19.40;;;9.20;;
57297;SDS011;43147;50.972;18.210;2023-04-24T06:20:56;28.40;;;9.60;;
57297;SDS011;43147;50.972;18.210;2023-04-24T06:23:21;18.90;;;8.00;;
57297;SDS011;43147;50.972;18.210;2023-04-24T06:25:47;14.50;;;9.10;;
57297;SDS011;43147;50.972;18.210;2023-04-24T06:28:13;17.60;;;8.00;;
57297;SDS011;43147;50.972;18.210;2023-04-24T06:30:38;15.10;;;8.60;;
57297;SDS011;43147;50.972;18.210;2023-04-24T06:33:04;9.60;;;7.80;;
57297;SDS011;43147;50.972;18.210;2023-04-24T06:35:29;13.90;;;7.70;;
57297;SDS011;43147;50.972;18.210;2023-04-24T06:37:55;10.90;;;8.30;;
57297;SDS011;43147;50.972;18.210;2023-04-24T06:40:21;10.10;;;8.60;;
57297;SDS011;43147;50.972;18.210;2023-04-24T06:42:50;18.30;;;8.40;;
57297;SDS011;43147;50.972;18.210;2023-04-24T06:45:15;19.10;;;8.90;;
57297;SDS011;43147;50.972;18.210;2023-04-24T06:47:41;17.40;;;8.90;;
57297;SDS011;43147;50.972;18.210;2023-04-24T06:50:06;11.10;;;7.80;;
57297;SDS011;43147;50.972;18.210;2023-04-24T06:52:32;14.40;;;8.00;;
57297;SDS011;43147;50.972;18.210;2023-04-24T06:55:02;16.90;;;8.80;;
57297;SDS011;43147;50.972;18.210;2023-04-24T06:57:28;9.20;;;7.70;;
57297;SDS011;43147;50.972;18.210;2023-04-24T06:59:55;19.30;;;8.40;;
57297;SDS011;43147;50.972;18.210;2023-04-24T07:02:20;10.80;;;7.20;;
57297;SDS011;43147;50.972;18.210;2023-04-24T07:04:46;10.80;;;7.50;;
57297;SDS011;43147;50.972;18.210;2023-04-24T07:07:13;10.20;;;8.00;;
57297;SDS011;43147;50.972;18.210;2023-04-24T07:09:39;13.50;;;8.10;;
57297;SDS011;43147;50.972;18.210;2023-04-24T07:12:10;11.40;;;7.40;;
57297;SDS011;43147;50.972;18.210;2023-04-24T07:14:36;9.30;;;7.40;;
57297;SDS011;43147;50.972;18.210;2023-04-24T07:17:05;15.20;;;8.00;;
57297;SDS011;43147;50.972;18.210;2023-04-24T07:19:32;11.60;;;7.50;;
57297;SDS011;43147;50.972;18.210;2023-04-24T07:21:59;11.50;;;7.90;;
57297;SDS011;43147;50.972;18.210;2023-04-24T07:24:25;11.10;;;8.10;;
57297;SDS011;43147;50.972;18.210;2023-04-24T07:26:51;12.90;;;7.50;;
57297;SDS011;43147;50.972;18.210;2023-04-24T07:29:17;19.80;;;7.60;;
57297;SDS011;43147;50.972;18.210;2023-04-24T07:31:43;9.40;;;7.40;;
57297;SDS011;43147;50.972;18.210;2023-04-24T07:34:09;13.30;;;7.80;;
57297;SDS011;43147;50.972;18.210;2023-04-24T07:36:34;10.50;;;7.50;;
57297;SDS011;43147;50.972;18.210;2023-04-24T07:39:00;17.50;;;7.40;;
57297;SDS011;43147;50.972;18.210;2023-04-24T07:41:26;13.80;;;7.50;;
57297;SDS011;43147;50.972;18.210;2023-04-24T07:43:53;11.00;;;6.10;;
57297;SDS011;43147;50.972;18.210;2023-04-24T07:46:19;10.20;;;5.60;;
57297;SDS011;43147;50.972;18.210;2023-04-24T07:48:45;11.30;;;5.30;;
57297;SDS011;43147;50.972;18.210;2023-04-24T07:51:13;10.00;;;5.00;;
57297;SDS011;43147;50.972;18.210;2023-04-24T07:53:39;8.10;;;5.30;;
57297;SDS011;43147;50.972;18.210;2023-04-24T07:56:05;7.50;;;4.90;;
57297;SDS011;43147;50.972;18.210;2023-04-24T07:58:31;8.70;;;4.80;;
57297;SDS011;43147;50.972;18.210;2023-04-24T08:00:56;17.70;;;5.40;;
57297;SDS011;43147;50.972;18.210;2023-04-24T08:03:22;5.90;;;4.30;;
57297;SDS011;43147;50.972;18.210;2023-04-24T08:05:48;7.30;;;4.30;;
57297;SDS011;43147;50.972;18.210;2023-04-24T08:08:21;12.40;;;4.70;;
57297;SDS011;43147;50.972;18.210;2023-04-24T08:10:47;8.40;;;4.80;;
57297;SDS011;43147;50.972;18.210;2023-04-24T08:13:12;11.00;;;4.40;;
57297;SDS011;43147;50.972;18.210;2023-04-24T08:15:38;9.60;;;4.50;;
57297;SDS011;43147;50.972;18.210;2023-04-24T08:18:04;8.40;;;4.60;;
57297;SDS011;43147;50.972;18.210;2023-04-24T08:20:29;9.90;;;5.20;;
57297;SDS011;43147;50.972;18.210;2023-04-24T08:22:55;8.80;;;5.00;;
57297;SDS011;43147;50.972;18.210;2023-04-24T08:25:21;8.70;;;4.40;;
57297;SDS011;43147;50.972;18.210;2023-04-24T08:27:48;9.60;;;4.30;;
57297;SDS011;43147;50.972;18.210;2023-04-24T08:30:14;7.10;;;4.40;;
57297;SDS011;43147;50.972;18.210;2023-04-24T08:32:40;8.80;;;4.60;;
57297;SDS011;43147;50.972;18.210;2023-04-24T08:35:05;5.80;;;4.60;;
57297;SDS011;43147;50.972;18.210;2023-04-24T08:37:34;9.90;;;4.90;;
57297;SDS011;43147;50.972;18.210;2023-04-24T08:40:00;5.70;;;5.10;;
57297;SDS011;43147;50.972;18.210;2023-04-24T08:42:27;13.90;;;5.50;;
57297;SDS011;43147;50.972;18.210;2023-04-24T08:44:53;5.00;;;4.50;;
57297;SDS011;43147;50.972;18.210;2023-04-24T08:47:20;6.60;;;4.60;;
57297;SDS011;43147;50.972;18.210;2023-04-24T08:49:49;8.10;;;4.50;;
57297;SDS011;43147;50.972;18.210;2023-04-24T08:52:15;8.00;;;4.90;;
57297;SDS011;43147;50.972;18.210;2023-04-24T08:54:41;7.90;;;4.10;;
57297;SDS011;43147;50.972;18.210;2023-04-24T08:57:10;6.60;;;4.00;;
57297;SDS011;43147;50.972;18.210;2023-04-24T08:59:37;8.00;;;4.30;;
57297;SDS011;43147;50.972;18.210;2023-04-24T09:02:03;6.30;;;4.50;;
57297;SDS011;43147;50.972;18.210;2023-04-24T09:04:30;5.30;;;4.00;;
57297;SDS011;43147;50.972;18.210;2023-04-24T09:06:56;6.10;;;4.30;;
57297;SDS011;43147;50.972;18.210;2023-04-24T09:09:23;5.00;;;4.00;;
57297;SDS011;43147;50.972;18.210;2023-04-24T09:11:49;9.70;;;4.40;;
57297;SDS011;43147;50.972;18.210;2023-04-24T09:14:16;5.60;;;3.60;;
57297;SDS011;43147;50.972;18.210;2023-04-24T09:16:43;5.40;;;3.80;;
57297;SDS011;43147;50.972;18.210;2023-04-24T09:19:09;8.10;;;4.20;;
57297;SDS011;43147;50.972;18.210;2023-04-24T09:21:35;6.10;;;3.90;;
57297;SDS011;43147;50.972;18.210;2023-04-24T09:24:05;8.40;;;4.50;;
57297;SDS011;43147;50.972;18.210;2023-04-24T09:26:34;5.40;;;3.70;;
57297;SDS011;43147;50.972;18.210;2023-04-24T09:29:00;7.10;;;3.90;;
57297;SDS011;43147;50.972;18.210;2023-04-24T09:31:27;7.50;;;4.30;;
57297;SDS011;43147;50.972;18.210;2023-04-24T09:33:59;5.60;;;3.50;;
57297;SDS011;43147;50.972;18.210;2023-04-24T09:36:27;6.10;;;3.70;;
57297;SDS011;43147;50.972;18.210;2023-04-24T09:38:57;3.70;;;3.40;;
57297;SDS011;43147;50.972;18.210;2023-04-24T09:41:24;5.20;;;3.00;;
57297;SDS011;43147;50.972;18.210;2023-04-24T09:43:50;3.80;;;3.30;;
57297;SDS011;43147;50.972;18.210;2023-04-24T09:46:15;4.40;;;3.40;;
57297;SDS011;43147;50.972;18.210;2023-04-24T09:48:43;4.00;;;3.40;;
57297;SDS011;43147;50.972;18.210;2023-04-24T09:51:09;10.30;;;4.10;;
57297;SDS011;43147;50.972;18.210;2023-04-24T09:53:37;6.10;;;3.40;;
57297;SDS011;43147;50.972;18.210;2023-04-24T09:56:07;9.30;;;4.40;;
57297;SDS011;43147;50.972;18.210;2023-04-24T09:58:34;7.00;;;3.90;;
57297;SDS011;43147;50.972;18.210;2023-04-24T10:01:01;7.90;;;4.00;;
57297;SDS011;43147;50.972;18.210;2023-04-24T10:03:29;12.70;;;4.10;;
57297;SDS011;43147;50.972;18.210;2023-04-24T10:06:02;6.70;;;4.30;;
57297;SDS011;43147;50.972;18.210;2023-04-24T10:08:34;6.30;;;4.50;;
57297;SDS011;43147;50.972;18.210;2023-04-24T10:11:01;7.10;;;4.40;;
57297;SDS011;43147;50.972;18.210;2023-04-24T10:13:27;8.60;;;4.50;;
57297;SDS011;43147;50.972;18.210;2023-04-24T10:15:53;7.50;;;4.80;;
57297;SDS011;43147;50.972;18.210;2023-04-24T10:18:18;5.80;;;4.80;;
57297;SDS011;43147;50.972;18.210;2023-04-24T10:20:47;8.90;;;4.60;;
57297;SDS011;43147;50.972;18.210;2023-04-24T10:23:14;10.30;;;4.50;;
57297;SDS011;43147;50.972;18.210;2023-04-24T10:25:40;7.50;;;4.40;;
57297;SDS011;43147;50.972;18.210;2023-04-24T10:28:05;5.40;;;4.50;;
57297;SDS011;43147;50.972;18.210;2023-04-24T10:30:34;6.10;;;4.40;;
57297;SDS011;43147;50.972;18.210;2023-04-24T10:33:03;6.90;;;4.20;;
57297;SDS011;43147;50.972;18.210;2023-04-24T10:35:30;5.60;;;4.90;;
57297;SDS011;43147;50.972;18.210;2023-04-24T10:37:58;8.20;;;4.20;;
57297;SDS011;43147;50.972;18.210;2023-04-24T10:40:35;18.00;;;11.60;;
57297;SDS011;43147;50.972;18.210;2023-04-24T10:43:04;10.00;;;8.20;;
57297;SDS011;43147;50.972;18.210;2023-04-24T10:45:33;7.00;;;4.90;;
57297;SDS011;43147;50.972;18.210;2023-04-24T10:53:12;6.00;;;3.90;;
57297;SDS011;43147;50.972;18.210;2023-04-24T10:58:10;10.60;;;5.00;;
57297;SDS011;43147;50.972;18.210;2023-04-24T11:00:40;5.90;;;4.60;;
57297;SDS011;43147;50.972;18.210;2023-04-24T11:03:07;9.30;;;3.70;;
57297;SDS011;43147;50.972;18.210;2023-04-24T11:05:51;5.30;;;4.40;;
57297;SDS011;43147;50.972;18.210;2023-04-24T11:08:25;5.70;;;4.30;;
57297;SDS011;43147;50.972;18.210;2023-04-24T11:10:56;6.40;;;4.20;;
57297;SDS011;43147;50.972;18.210;2023-04-24T11:16:29;4.60;;;4.10;;
57297;SDS011;43147;50.972;18.210;2023-04-24T11:24:24;9.20;;;4.90;;
57297;SDS011;43147;50.972;18.210;2023-04-24T11:27:39;9.20;;;5.40;;
57297;SDS011;43147;50.972;18.210;2023-04-24T11:29:41;7.80;;;4.70;;
57297;SDS011;43147;50.972;18.210;2023-04-24T11:34:47;6.30;;;5.70;;
57297;SDS011;43147;50.972;18.210;2023-04-24T11:37:13;7.50;;;5.70;;
57297;SDS011;43147;50.972;18.210;2023-04-24T11:39:40;7.90;;;6.30;;
57297;SDS011;43147;50.972;18.210;2023-04-24T11:42:05;7.10;;;4.80;;
57297;SDS011;43147;50.972;18.210;2023-04-24T11:44:33;4.80;;;4.30;;
57297;SDS011;43147;50.972;18.210;2023-04-24T11:47:00;5.00;;;4.50;;
57297;SDS011;43147;50.972;18.210;2023-04-24T11:49:25;7.50;;;5.10;;
57297;SDS011;43147;50.972;18.210;2023-04-24T11:51:54;7.80;;;5.10;;
57297;SDS011;43147;50.972;18.210;2023-04-24T11:54:21;8.30;;;5.10;;
57297;SDS011;43147;50.972;18.210;2023-04-24T11:56:47;8.20;;;5.20;;
57297;SDS011;43147;50.972;18.210;2023-04-24T11:59:13;8.50;;;4.70;;
57297;SDS011;43147;50.972;18.210;2023-04-24T12:01:43;10.80;;;6.70;;
57297;SDS011;43147;50.972;18.210;2023-04-24T12:04:11;8.20;;;5.50;;
57297;SDS011;43147;50.972;18.210;2023-04-24T12:06:37;8.00;;;5.10;;
57297;SDS011;43147;50.972;18.210;2023-04-24T12:09:03;7.20;;;6.00;;
57297;SDS011;43147;50.972;18.210;2023-04-24T12:11:29;14.70;;;9.40;;
57297;SDS011;43147;50.972;18.210;2023-04-24T12:13:54;15.10;;;9.30;;
57297;SDS011;43147;50.972;18.210;2023-04-24T12:16:20;11.20;;;9.90;;
57297;SDS011;43147;50.972;18.210;2023-04-24T12:18:46;7.60;;;5.90;;
57297;SDS011;43147;50.972;18.210;2023-04-24T12:21:21;7.20;;;5.10;;
57297;SDS011;43147;50.972;18.210;2023-04-24T12:23:48;6.70;;;5.70;;
57297;SDS011;43147;50.972;18.210;2023-04-24T12:26:20;7.40;;;4.90;;
57297;SDS011;43147;50.972;18.210;2023-04-24T12:28:48;11.30;;;5.20;;
57297;SDS011;43147;50.972;18.210;2023-04-24T12:31:14;6.10;;;5.30;;
57297;SDS011;43147;50.972;18.210;2023-04-24T12:33:41;6.90;;;5.70;;
57297;SDS011;43147;50.972;18.210;2023-04-24T12:36:10;6.40;;;5.80;;
57297;SDS011;43147;50.972;18.210;2023-04-24T12:38:38;7.10;;;5.30;;
57297;SDS011;43147;50.972;18.210;2023-04-24T12:41:10;5.50;;;4.40;;
57297;SDS011;43147;50.972;18.210;2023-04-24T12:43:37;6.00;;;4.50;;
57297;SDS011;43147;50.972;18.210;2023-04-24T12:46:02;4.60;;;4.20;;
57297;SDS011;43147;50.972;18.210;2023-04-24T12:48:29;14.30;;;4.50;;
57297;SDS011;43147;50.972;18.210;2023-04-24T12:50:56;4.50;;;4.10;;
57297;SDS011;43147;50.972;18.210;2023-04-24T12:53:25;7.50;;;4.40;;
57297;SDS011;43147;50.972;18.210;2023-04-24T12:55:52;4.50;;;4.10;;
57297;SDS011;43147;50.972;18.210;2023-04-24T12:58:20;5.50;;;4.10;;
57297;SDS011;43147;50.972;18.210;2023-04-24T13:00:46;4.50;;;4.00;;
57297;SDS011;43147;50.972;18.210;2023-04-24T13:03:12;4.60;;;4.10;;
57297;SDS011;43147;50.972;18.210;2023-04-24T13:05:38;5.10;;;3.90;;
57297;SDS011;43147;50.972;18.210;2023-04-24T13:08:06;5.00;;;4.20;;
57297;SDS011;43147;50.972;18.210;2023-04-24T13:10:31;4.90;;;4.40;;
57297;SDS011;43147;50.972;18.210;2023-04-24T13:12:57;6.40;;;4.90;;
57297;SDS011;43147;50.972;18.210;2023-04-24T13:15:23;8.00;;;4.90;;
57297;SDS011;43147;50.972;18.210;2023-04-24T13:17:49;5.40;;;4.90;;
57297;SDS011;43147;50.972;18.210;2023-04-24T13:20:14;7.40;;;5.40;;
57297;SDS011;43147;50.972;18.210;2023-04-24T13:22:40;9.50;;;6.00;;
57297;SDS011;43147;50.972;18.210;2023-04-24T13:25:06;7.60;;;5.10;;
57297;SDS011;43147;50.972;18.210;2023-04-24T13:27:32;7.00;;;5.90;;
57297;SDS011;43147;50.972;18.210;2023-04-24T13:29:57;8.00;;;5.50;;
57297;SDS011;43147;50.972;18.210;2023-04-24T13:32:23;6.80;;;5.70;;
57297;SDS011;43147;50.972;18.210;2023-04-24T13:34:49;9.10;;;5.50;;
57297;SDS011;43147;50.972;18.210;2023-04-24T13:37:14;8.00;;;5.50;;
57297;SDS011;43147;50.972;18.210;2023-04-24T13:39:40;7.00;;;5.40;;
57297;SDS011;43147;50.972;18.210;2023-04-24T13:42:06;7.90;;;5.20;;
57297;SDS011;43147;50.972;18.210;2023-04-24T13:44:32;8.30;;;5.70;;
57297;SDS011;43147;50.972;18.210;2023-04-24T13:46:57;10.00;;;5.70;;
57297;SDS011;43147;50.972;18.210;2023-04-24T13:49:23;8.10;;;6.20;;
57297;SDS011;43147;50.972;18.210;2023-04-24T13:51:55;6.20;;;5.60;;
57297;SDS011;43147;50.972;18.210;2023-04-24T13:54:21;11.50;;;6.70;;
57297;SDS011;43147;50.972;18.210;2023-04-24T13:56:48;7.10;;;6.30;;
57297;SDS011;43147;50.972;18.210;2023-04-24T13:59:14;7.20;;;6.50;;
57297;SDS011;43147;50.972;18.210;2023-04-24T14:01:40;13.00;;;8.00;;
57297;SDS011;43147;50.972;18.210;2023-04-24T14:04:06;16.60;;;13.60;;
57297;SDS011;43147;50.972;18.210;2023-04-24T14:06:31;7.90;;;6.70;;
57297;SDS011;43147;50.972;18.210;2023-04-24T14:08:57;39.50;;;31.10;;
57297;SDS011;43147;50.972;18.210;2023-04-24T14:11:23;33.80;;;25.40;;
57297;SDS011;43147;50.972;18.210;2023-04-24T14:13:48;16.50;;;13.60;;
57297;SDS011;43147;50.972;18.210;2023-04-24T14:16:14;11.10;;;9.50;;
57297;SDS011;43147;50.972;18.210;2023-04-24T14:18:39;8.20;;;7.30;;
57297;SDS011;43147;50.972;18.210;2023-04-24T14:21:05;8.40;;;6.50;;
57297;SDS011;43147;50.972;18.210;2023-04-24T14:23:31;7.80;;;7.00;;
57297;SDS011;43147;50.972;18.210;2023-04-24T14:25:57;7.80;;;7.10;;
57297;SDS011;43147;50.972;18.210;2023-04-24T14:28:23;6.70;;;5.70;;
57297;SDS011;43147;50.972;18.210;2023-04-24T14:30:49;7.00;;;6.40;;
57297;SDS011;43147;50.972;18.210;2023-04-24T14:33:15;7.70;;;6.90;;
57297;SDS011;43147;50.972;18.210;2023-04-24T14:35:41;10.60;;;6.30;;
57297;SDS011;43147;50.972;18.210;2023-04-24T14:38:10;7.60;;;6.90;;